createdAt,value
2022-12-13T00:00:49.310Z,100310.69
2022-12-13T00:03:56.802Z,100332.97
2022-12-13T00:07:00.985Z,100322.13
2022-12-13T00:10:08.205Z,100329.34
2022-12-13T00:13:11.211Z,100317.94
2022-12-13T00:16:23.765Z,100331.75
2022-12-13T00:19:26.488Z,100336.97
2022-12-13T00:22:30.440Z,100332.81
2022-12-13T00:25:33.934Z,100328.34
2022-12-13T00:28:38.836Z,100322.41
2022-12-13T00:35:05.757Z,100335.66
2022-12-13T00:38:10.805Z,100338.47
2022-12-13T00:41:20.651Z,100332.75
2022-12-13T00:44:23.632Z,100339.41
2022-12-13T00:47:26.826Z,100341.50
2022-12-13T00:50:30.474Z,100341.00
2022-12-13T00:53:35.281Z,100349.31
2022-12-13T00:56:38.567Z,100344.31
2022-12-13T00:59:42.420Z,100349.44
2022-12-13T01:02:45.851Z,100350.38
2022-12-13T01:06:14.413Z,100360.72
2022-12-13T01:09:21.008Z,100353.69
2022-12-13T01:12:24.322Z,100356.66
2022-12-13T01:15:27.060Z,100362.03
2022-12-13T01:18:30.206Z,100362.69
2022-12-13T01:21:33.024Z,100370.97
2022-12-13T01:24:36.631Z,100370.50
2022-12-13T01:27:39.283Z,100370.59
2022-12-13T01:30:43.037Z,100366.37
2022-12-13T01:33:46.892Z,100371.50
2022-12-13T01:36:50.409Z,100371.75
2022-12-13T01:39:58.542Z,100366.00
2022-12-13T01:43:02.520Z,100370.97
2022-12-13T01:46:18.243Z,100369.22
2022-12-13T01:49:21.397Z,100370.09
2022-12-13T01:52:25.244Z,100372.91
2022-12-13T01:55:33.501Z,100362.19
2022-12-13T01:58:47.058Z,100366.66
2022-12-13T02:01:50.744Z,100376.37
2022-12-13T02:05:08.238Z,100374.31
2022-12-13T02:08:14.342Z,100363.72
2022-12-13T02:11:17.671Z,100366.78
2022-12-13T02:14:20.777Z,100364.22
2022-12-13T02:18:06.450Z,100363.22
2022-12-13T02:21:33.658Z,100368.44
2022-12-13T02:24:44.288Z,100370.09
2022-12-13T02:28:30.702Z,100372.28
2022-12-13T02:32:26.695Z,100373.03
2022-12-13T02:35:42.215Z,100366.78
2022-12-13T02:38:59.684Z,100376.63
2022-12-13T02:42:21.906Z,100369.47
2022-12-13T02:45:33.558Z,100379.44
2022-12-13T02:48:40.731Z,100387.72
2022-12-13T02:51:45.768Z,100384.91
2022-12-13T02:54:49.302Z,100372.78
2022-12-13T02:57:53.032Z,100381.59
2022-12-13T03:01:28.969Z,100379.03
2022-12-13T03:05:00.328Z,100388.88
2022-12-13T03:08:35.471Z,100388.34
2022-12-13T03:12:10.425Z,100393.97
2022-12-13T03:15:31.647Z,100398.78
2022-12-13T03:18:35.613Z,100391.88
2022-12-13T03:21:48.552Z,100403.47
2022-12-13T03:24:52.819Z,100398.47
2022-12-13T03:27:56.327Z,100404.56
2022-12-13T03:31:07.764Z,100402.28
2022-12-13T03:34:10.746Z,100404.06
2022-12-13T03:37:15.518Z,100407.13
2022-12-13T03:40:19.690Z,100411.88
2022-12-13T03:43:23.792Z,100410.06
2022-12-13T03:46:26.876Z,100408.41
2022-12-13T03:49:35.581Z,100405.09
2022-12-13T03:52:38.929Z,100395.94
2022-12-13T03:55:41.786Z,100392.34
2022-12-13T03:58:45.326Z,100391.72
2022-12-13T04:01:48.600Z,100393.75
2022-12-13T04:04:51.800Z,100396.94
2022-12-13T04:07:54.810Z,100408.78
2022-12-13T04:11:24.959Z,100402.66
2022-12-13T04:14:28.085Z,100413.00
2022-12-13T04:17:31.094Z,100413.63
2022-12-13T04:20:35.698Z,100401.91
2022-12-13T04:23:39.487Z,100406.87
2022-12-13T04:26:42.188Z,100411.47
2022-12-13T04:29:45.248Z,100413.75
2022-12-13T04:32:48.157Z,100404.31
2022-12-13T04:35:51.591Z,100410.81
2022-12-13T04:38:54.010Z,100415.78
2022-12-13T04:41:56.991Z,100408.75
2022-12-13T04:44:59.900Z,100410.16
2022-12-13T04:48:03.474Z,100415.25
2022-12-13T04:51:09.645Z,100423.53
2022-12-13T04:54:23.924Z,100424.28
2022-12-13T04:57:33.944Z,100427.47
2022-12-13T05:00:40.593Z,100422.84
2022-12-13T05:03:47.193Z,100421.81
2022-12-13T05:06:52.381Z,100423.34
2022-12-13T05:09:58.031Z,100415.12
2022-12-13T05:13:05.957Z,100420.22
2022-12-13T05:16:09.800Z,100414.25
2022-12-13T05:19:13.973Z,100413.34
2022-12-13T05:22:20.286Z,100417.56
2022-12-13T05:25:26.006Z,100418.19
2022-12-13T05:28:30.410Z,100430.16
2022-12-13T05:31:34.056Z,100420.72
2022-12-13T05:34:42.616Z,100419.19
2022-12-13T05:37:47.065Z,100417.00
2022-12-13T05:40:58.657Z,100410.25
2022-12-13T05:44:01.785Z,100409.38
2022-12-13T05:47:05.693Z,100411.03
2022-12-13T05:50:10.637Z,100421.09
2022-12-13T05:53:30.737Z,100421.97
2022-12-13T05:56:34.383Z,100422.34
2022-12-13T05:59:37.542Z,100420.94
2022-12-13T06:02:45.073Z,100426.81
2022-12-13T06:05:49.992Z,100425.78
2022-12-13T06:08:54.791Z,100425.09
2022-12-13T06:12:00.916Z,100431.97
2022-12-13T06:15:21.926Z,100431.84
2022-12-13T06:18:27.446Z,100433.37
2022-12-13T06:21:45.510Z,100441.41
2022-12-13T06:24:50.023Z,100440.53
2022-12-13T06:27:53.691Z,100444.59
2022-12-13T06:31:01.278Z,100445.34
2022-12-13T06:34:15.586Z,100456.56
2022-12-13T06:37:19.105Z,100462.81
2022-12-13T06:40:23.495Z,100465.66
2022-12-13T06:43:30.083Z,100466.41
2022-12-13T06:46:34.565Z,100465.78
2022-12-13T06:49:37.993Z,100462.41
2022-12-13T06:52:41.785Z,100467.34
2022-12-13T06:55:45.926Z,100453.25
2022-12-13T06:58:49.114Z,100458.81
2022-12-13T07:02:03.877Z,100465.50
2022-12-13T07:05:10.351Z,100473.88
2022-12-13T07:08:14.400Z,100474.78
2022-12-13T07:11:30.014Z,100473.53
2022-12-13T07:14:40.728Z,100476.34
2022-12-13T07:17:44.891Z,100478.00
2022-12-13T07:20:49.140Z,100466.69
2022-12-13T07:23:54.889Z,100470.56
2022-12-13T07:26:58.753Z,100460.78
2022-12-13T07:30:03.947Z,100460.56
2022-12-13T07:33:07.685Z,100466.59
2022-12-13T07:36:18.050Z,100473.56
2022-12-13T07:39:26.474Z,100478.66
2022-12-13T07:42:30.563Z,100480.72
2022-12-13T07:45:34.432Z,100483.94
2022-12-13T07:48:38.066Z,100477.78
2022-12-13T07:51:42.646Z,100481.94
2022-12-13T07:54:46.396Z,100480.13
2022-12-13T07:57:51.061Z,100479.66
2022-12-13T08:01:05.206Z,100483.06
2022-12-13T08:04:10.245Z,100486.72
2022-12-13T08:07:13.338Z,100484.66
2022-12-13T08:10:18.768Z,100479.03
2022-12-13T08:13:28.354Z,100490.00
2022-12-13T08:16:33.136Z,100487.13
2022-12-13T08:19:39.039Z,100486.88
2022-12-13T08:22:42.061Z,100484.66
2022-12-13T08:25:56.173Z,100485.22
2022-12-13T08:29:00.161Z,100487.22
2022-12-13T08:32:08.901Z,100486.62
2022-12-13T08:35:13.035Z,100481.91
2022-12-13T08:38:22.793Z,100493.12
2022-12-13T08:41:26.943Z,100495.75
2022-12-13T08:44:29.719Z,100483.78
2022-12-13T08:47:38.245Z,100483.59
2022-12-13T08:50:45.053Z,100490.41
2022-12-13T08:53:48.665Z,100485.78
2022-12-13T08:57:00.365Z,100489.25
2022-12-13T09:00:14.236Z,100489.78
2022-12-13T09:03:22.520Z,100497.53
2022-12-13T09:06:26.178Z,100492.47
2022-12-13T09:09:34.239Z,100499.00
2022-12-13T09:12:46.085Z,100486.38
2022-12-13T09:15:49.726Z,100487.13
2022-12-13T09:18:55.205Z,100487.94
2022-12-13T09:22:02.893Z,100490.06
2022-12-13T09:25:14.911Z,100486.41
2022-12-13T09:28:20.359Z,100483.41
2022-12-13T09:31:25.444Z,100482.50
2022-12-13T09:34:33.315Z,100487.28
2022-12-13T09:37:41.164Z,100479.88
2022-12-13T09:40:59.220Z,100481.03
2022-12-13T09:44:30.802Z,100477.63
2022-12-13T09:47:36.350Z,100478.16
2022-12-13T09:50:46.358Z,100486.38
2022-12-13T09:53:58.058Z,100477.94
2022-12-13T09:57:01.708Z,100478.63
2022-12-13T10:00:08.847Z,100478.50
2022-12-13T10:03:16.195Z,100470.94
2022-12-13T10:06:24.717Z,100470.28
2022-12-13T10:09:29.148Z,100464.75
2022-12-13T10:12:38.151Z,100467.75
2022-12-13T10:15:50.133Z,100471.59
2022-12-13T10:18:53.429Z,100463.34
2022-12-13T10:22:01.640Z,100462.12
2022-12-13T10:25:07.889Z,100464.41
2022-12-13T10:28:16.378Z,100465.44
2022-12-13T10:31:21.984Z,100463.75
2022-12-13T10:34:36.340Z,100457.34
2022-12-13T10:37:42.145Z,100446.56
2022-12-13T10:40:49.249Z,100454.75
2022-12-13T10:44:07.458Z,100443.25
2022-12-13T10:47:10.737Z,100444.22
2022-12-13T10:50:30.017Z,100448.88
2022-12-13T10:53:46.952Z,100446.22
2022-12-13T10:56:54.905Z,100445.91
2022-12-13T10:59:58.275Z,100447.47
2022-12-13T11:03:02.732Z,100442.22
2022-12-13T11:06:07.378Z,100448.75
2022-12-13T11:09:22.773Z,100442.81
2022-12-13T11:12:28.126Z,100442.47
2022-12-13T11:15:34.767Z,100439.50
2022-12-13T11:18:40.677Z,100429.38
2022-12-13T11:21:49.644Z,100422.47
2022-12-13T11:25:05.311Z,100421.78
2022-12-13T11:28:25.950Z,100418.44
2022-12-13T11:31:56.360Z,100419.06
2022-12-13T11:35:36.099Z,100416.25
2022-12-13T11:39:05.927Z,100411.62
2022-12-13T11:42:28.067Z,100413.22
2022-12-13T11:45:33.833Z,100410.00
2022-12-13T11:48:43.983Z,100413.28
2022-12-13T11:52:04.515Z,100411.22
2022-12-13T11:55:17.677Z,100409.84
2022-12-13T11:59:10.114Z,100413.28
2022-12-13T12:02:33.096Z,100406.16
2022-12-13T12:05:41.164Z,100408.16
2022-12-13T12:08:53.894Z,100404.28
2022-12-13T12:12:23.831Z,100405.59
2022-12-13T12:15:33.066Z,100411.50
2022-12-13T12:18:47.136Z,100413.47
2022-12-13T12:22:15.714Z,100407.66
2022-12-13T12:25:31.934Z,100396.47
2022-12-13T12:29:01.286Z,100404.19
2022-12-13T12:32:12.390Z,100397.09
2022-12-13T12:35:52.090Z,100397.53
2022-12-13T12:39:29.055Z,100402.09
2022-12-13T12:43:13.338Z,100395.75
2022-12-13T12:46:27.998Z,100398.81
2022-12-13T12:50:02.161Z,100399.97
2022-12-13T12:53:30.419Z,100389.09
2022-12-13T12:56:45.103Z,100398.16
2022-12-13T13:00:04.235Z,100412.69
2022-12-13T13:03:26.161Z,100416.53
2022-12-13T13:06:44.878Z,100414.31
2022-12-13T13:09:49.798Z,100418.34
2022-12-13T13:13:12.211Z,100416.47
2022-12-13T13:16:28.244Z,100415.56
2022-12-13T13:19:36.466Z,100411.00
2022-12-13T13:22:43.435Z,100422.63
2022-12-13T13:29:27.820Z,100428.31
2022-12-13T13:32:37.885Z,100432.53
2022-12-13T13:35:43.114Z,100427.09
2022-12-13T13:38:55.260Z,100425.31
2022-12-13T13:42:15.232Z,100430.22
2022-12-13T13:45:22.967Z,100435.12
2022-12-13T13:48:41.660Z,100435.50
2022-12-13T13:52:16.838Z,100439.41
2022-12-13T13:55:37.864Z,100445.22
2022-12-13T13:59:18.654Z,100451.47
2022-12-13T14:02:47.298Z,100449.25
2022-12-13T14:06:31.903Z,100449.81
2022-12-13T14:09:48.217Z,100448.47
2022-12-13T14:13:24.819Z,100446.47
2022-12-13T14:17:10.139Z,100446.09
2022-12-13T14:20:22.072Z,100439.50
2022-12-13T14:23:44.838Z,100437.72
2022-12-13T14:27:09.909Z,100442.41
2022-12-13T14:30:28.384Z,100438.94
2022-12-13T14:33:47.286Z,100422.66
2022-12-13T14:37:04.839Z,100434.09
2022-12-13T14:40:52.368Z,100436.44
2022-12-13T14:44:13.646Z,100426.59
2022-12-13T14:47:29.920Z,100442.75
2022-12-13T14:50:42.982Z,100455.50
2022-12-13T14:53:59.059Z,100462.25
2022-12-13T14:57:04.973Z,100465.56
2022-12-13T15:00:38.827Z,100454.59
2022-12-13T15:03:50.044Z,100460.56
2022-12-13T15:07:39.190Z,100465.69
2022-12-13T15:10:51.940Z,100459.44
2022-12-13T15:14:06.089Z,100468.66
2022-12-13T15:17:30.173Z,100474.19
2022-12-13T15:20:49.988Z,100477.81
2022-12-13T15:24:14.394Z,100481.69
2022-12-13T15:27:28.818Z,100475.31
2022-12-13T15:30:37.155Z,100479.94
2022-12-13T15:33:48.837Z,100479.06
2022-12-13T15:36:56.909Z,100482.03
2022-12-13T15:40:09.161Z,100490.88
2022-12-13T15:43:26.150Z,100488.69
2022-12-13T15:46:34.920Z,100493.53
2022-12-13T15:50:03.146Z,100495.84
2022-12-13T15:53:23.311Z,100489.34
2022-12-13T15:56:37.590Z,100502.00
2022-12-13T15:59:50.869Z,100498.94
2022-12-13T16:03:09.948Z,100489.13
2022-12-13T16:06:23.922Z,100500.75
2022-12-13T16:09:38.442Z,100510.47
2022-12-13T16:13:26.476Z,100506.50
2022-12-13T16:16:45.035Z,100503.81
2022-12-13T16:20:09.188Z,100502.66
2022-12-13T16:23:26.621Z,100501.22
2022-12-13T16:26:35.881Z,100494.84
2022-12-13T16:29:44.859Z,100500.44
2022-12-13T16:33:18.126Z,100507.06
2022-12-13T16:36:32.081Z,100502.34
2022-12-13T16:39:37.842Z,100500.16
2022-12-13T16:42:48.749Z,100498.37
2022-12-13T16:47:16.910Z,100500.66
2022-12-13T16:49:42.642Z,100502.06
2022-12-13T16:52:48.921Z,100513.53
2022-12-13T16:55:59.081Z,100493.50
2022-12-13T16:59:03.269Z,100504.59
2022-12-13T17:02:19.223Z,100497.56
2022-12-13T17:05:30.886Z,100492.72
2022-12-13T17:08:54.867Z,100488.06
2022-12-13T17:12:00.043Z,100492.28
2022-12-13T17:15:22.760Z,100497.75
2022-12-13T17:18:30.997Z,100494.94
2022-12-13T17:21:42.046Z,100495.56
2022-12-13T17:24:50.985Z,100502.81
2022-12-13T17:28:04.314Z,100495.78
2022-12-13T17:31:31.805Z,100506.75
2022-12-13T17:34:40.952Z,100505.47
2022-12-13T17:38:01.845Z,100505.19
2022-12-13T17:41:27.752Z,100506.72
2022-12-13T17:44:39.871Z,100502.09
2022-12-13T17:47:46.822Z,100504.38
2022-12-13T17:51:05.838Z,100503.50
2022-12-13T17:54:17.616Z,100505.00
2022-12-13T17:57:27.232Z,100498.75
2022-12-13T18:00:40.961Z,100508.69
2022-12-13T18:04:07.871Z,100507.66
2022-12-13T18:07:19.377Z,100501.53
2022-12-13T18:10:32.354Z,100497.94
2022-12-13T18:13:46.334Z,100496.28
2022-12-13T18:17:05.735Z,100502.16
2022-12-13T18:20:11.978Z,100495.00
2022-12-13T18:23:21.346Z,100493.19
2022-12-13T18:26:29.899Z,100492.03
2022-12-13T18:29:54.955Z,100491.72
2022-12-13T18:32:59.915Z,100488.00
2022-12-13T18:36:11.757Z,100497.78
2022-12-13T18:39:22.878Z,100505.31
2022-12-13T18:42:42.977Z,100504.13
2022-12-13T18:45:56.827Z,100510.63
2022-12-13T18:49:12.881Z,100511.22
2022-12-13T18:52:20.019Z,100506.97
2022-12-13T18:55:24.333Z,100496.22
2022-12-13T18:58:34.077Z,100501.47
2022-12-13T19:01:40.031Z,100498.91
2022-12-13T19:04:55.720Z,100501.31
2022-12-13T19:08:01.817Z,100500.44
2022-12-13T19:11:14.829Z,100501.66
2022-12-13T19:14:32.864Z,100497.66
2022-12-13T19:17:50.876Z,100494.50
2022-12-13T19:21:09.880Z,100497.81
2022-12-13T19:24:15.713Z,100505.31
2022-12-13T19:27:27.060Z,100506.97
2022-12-13T19:30:42.738Z,100512.94
2022-12-13T19:33:55.774Z,100512.06
2022-12-13T19:37:06.886Z,100505.84
2022-12-13T19:40:17.967Z,100506.59
2022-12-13T19:43:28.690Z,100511.63
2022-12-13T19:46:34.789Z,100506.41
2022-12-13T19:49:46.306Z,100505.50
2022-12-13T19:53:01.798Z,100511.22
2022-12-13T19:56:19.719Z,100515.13
2022-12-13T19:59:25.370Z,100509.78
2022-12-13T20:02:30.373Z,100513.94
2022-12-13T20:06:10.898Z,100507.38
2022-12-13T20:09:47.972Z,100513.09
2022-12-13T20:13:12.073Z,100520.25
2022-12-13T20:16:36.889Z,100528.66
2022-12-13T20:20:00.582Z,100520.72
2022-12-13T20:23:07.088Z,100531.06
2022-12-13T20:26:22.922Z,100546.03
2022-12-13T20:29:35.842Z,100547.41
2022-12-13T20:32:41.243Z,100545.75
2022-12-13T20:36:22.623Z,100530.97
2022-12-13T20:39:26.108Z,100526.25
2022-12-13T20:42:35.869Z,100531.47
2022-12-13T20:45:39.831Z,100534.16
2022-12-13T20:48:50.966Z,100528.31
2022-12-13T20:52:08.804Z,100526.94
2022-12-13T20:55:14.815Z,100523.78
2022-12-13T20:58:22.952Z,100522.75
2022-12-13T21:01:35.897Z,100526.00
2022-12-13T21:04:42.881Z,100527.19
2022-12-13T21:08:13.797Z,100523.12
2022-12-13T21:11:30.890Z,100519.25
2022-12-13T21:14:37.077Z,100512.94
2022-12-13T21:17:42.085Z,100515.16
2022-12-13T21:21:09.732Z,100515.03
2022-12-13T21:24:15.441Z,100518.31
2022-12-13T21:27:18.644Z,100507.25
2022-12-13T21:30:25.994Z,100519.22
2022-12-13T21:33:30.799Z,100517.44
2022-12-13T21:36:39.543Z,100518.78
2022-12-13T21:39:49.839Z,100513.69
2022-12-13T21:42:53.730Z,100508.66
2022-12-13T21:46:16.054Z,100500.88
2022-12-13T21:49:26.957Z,100493.31
2022-12-13T21:52:31.770Z,100499.16
2022-12-13T21:55:43.653Z,100491.50
2022-12-13T21:59:05.398Z,100490.72
2022-12-13T22:02:20.068Z,100487.25
2022-12-13T22:05:27.018Z,100492.25
2022-12-13T22:08:37.918Z,100486.41
2022-12-13T22:11:41.750Z,100491.37
2022-12-13T22:14:45.900Z,100486.75
2022-12-13T22:17:49.201Z,100476.16
2022-12-13T22:20:57.279Z,100478.56
2022-12-13T22:24:00.614Z,100482.19
2022-12-13T22:27:03.906Z,100474.53
2022-12-13T22:30:10.808Z,100482.50
2022-12-13T22:33:14.006Z,100468.88
2022-12-13T22:36:17.934Z,100455.88
2022-12-13T22:39:23.349Z,100447.84
2022-12-13T22:42:27.934Z,100458.00
2022-12-13T22:45:32.840Z,100438.25
2022-12-13T22:48:38.786Z,100441.53
2022-12-13T22:51:41.736Z,100445.12
2022-12-13T22:54:45.940Z,100446.03
2022-12-13T22:57:48.806Z,100449.16
2022-12-13T23:00:51.942Z,100448.69
2022-12-13T23:03:55.367Z,100454.94
2022-12-13T23:06:58.824Z,100450.16
2022-12-13T23:10:01.552Z,100446.84
2022-12-13T23:13:06.213Z,100440.25
2022-12-13T23:16:10.775Z,100438.88
2022-12-13T23:22:38.798Z,100445.16
2022-12-13T23:25:41.990Z,100442.41
2022-12-13T23:28:47.427Z,100447.03
2022-12-13T23:31:50.395Z,100444.63
2022-12-13T23:34:53.141Z,100441.59
2022-12-13T23:37:56.706Z,100435.12
2022-12-13T23:41:14.536Z,100427.00
2022-12-13T23:44:17.874Z,100433.00
2022-12-13T23:47:21.046Z,100432.66
2022-12-13T23:50:24.325Z,100437.88
2022-12-13T23:53:27.721Z,100433.03
2022-12-13T23:56:37.171Z,100436.34
2022-12-13T23:59:39.833Z,100431.13
